createdAt,value
2023-04-16T00:01:55.952Z,6.80
2023-04-16T00:03:59.377Z,6.97
2023-04-16T00:06:02.285Z,6.69
2023-04-16T00:08:05.043Z,6.72
2023-04-16T00:10:09.076Z,6.81
2023-04-16T00:12:11.867Z,6.46
2023-04-16T00:14:14.596Z,6.90
2023-04-16T00:16:18.779Z,6.72
2023-04-16T00:18:21.768Z,6.37
2023-04-16T00:20:24.516Z,6.63
2023-04-16T00:22:27.250Z,6.82
2023-04-16T00:24:30.043Z,6.71
2023-04-16T00:26:32.861Z,6.40
2023-04-16T00:28:35.666Z,6.80
2023-04-16T00:30:38.449Z,6.74
2023-04-16T00:32:42.608Z,6.68
2023-04-16T00:34:45.468Z,6.51
2023-04-16T00:36:48.286Z,6.71
2023-04-16T00:38:51.270Z,6.70
2023-04-16T00:40:53.963Z,6.58
2023-04-16T00:42:56.777Z,6.82
2023-04-16T00:44:59.772Z,6.77
2023-04-16T00:47:03.783Z,6.75
2023-04-16T00:49:08.097Z,6.86
2023-04-16T00:51:12.244Z,6.54
2023-04-16T00:53:15.254Z,6.68
2023-04-16T00:55:19.025Z,6.81
2023-04-16T00:57:23.939Z,6.69
2023-04-16T00:59:27.212Z,6.83
2023-04-16T01:01:30.214Z,6.86
2023-04-16T01:03:39.516Z,6.87
2023-04-16T01:05:45.970Z,7.09
2023-04-16T01:07:48.730Z,6.96
2023-04-16T01:09:51.519Z,6.77
2023-04-16T01:11:54.279Z,6.74
2023-04-16T01:13:57.036Z,6.87
2023-04-16T01:16:00.143Z,6.88
2023-04-16T01:18:02.992Z,6.95
2023-04-16T01:20:08.326Z,6.80
2023-04-16T01:22:12.435Z,6.76
2023-04-16T01:24:15.165Z,6.71
2023-04-16T01:26:17.926Z,6.74
2023-04-16T01:28:21.122Z,6.83
2023-04-16T01:30:24.044Z,7.01
2023-04-16T01:32:40.137Z,6.77
2023-04-16T01:34:43.049Z,7.14
2023-04-16T01:36:46.310Z,7.08
2023-04-16T01:38:51.033Z,7.03
2023-04-16T01:40:57.062Z,6.88
2023-04-16T01:42:59.854Z,6.99
2023-04-16T01:45:02.622Z,7.14
2023-04-16T01:47:05.645Z,6.96
2023-04-16T01:49:08.977Z,7.09
2023-04-16T01:51:11.837Z,7.14
2023-04-16T01:53:14.600Z,7.08
2023-04-16T01:55:18.968Z,7.01
2023-04-16T01:57:21.874Z,6.81
2023-04-16T01:59:25.664Z,7.32
2023-04-16T02:01:28.594Z,7.10
2023-04-16T02:03:32.586Z,7.04
2023-04-16T02:05:35.643Z,7.16
2023-04-16T02:07:38.447Z,7.18
2023-04-16T02:09:42.026Z,6.89
2023-04-16T02:11:46.211Z,6.95
2023-04-16T02:13:49.009Z,7.01
2023-04-16T02:15:54.267Z,6.97
2023-04-16T02:18:08.397Z,7.00
2023-04-16T02:20:13.176Z,6.95
2023-04-16T02:22:23.879Z,6.96
2023-04-16T02:24:28.840Z,6.91
2023-04-16T02:26:32.473Z,7.10
2023-04-16T02:28:42.580Z,6.92
2023-04-16T02:30:47.610Z,6.99
2023-04-16T02:32:53.230Z,6.75
2023-04-16T02:34:57.065Z,6.87
2023-04-16T02:36:59.831Z,6.99
2023-04-16T02:39:02.697Z,7.14
2023-04-16T02:41:05.656Z,7.05
2023-04-16T02:43:09.712Z,7.07
2023-04-16T02:45:14.366Z,7.03
2023-04-16T02:47:17.209Z,7.13
2023-04-16T02:49:20.008Z,7.06
2023-04-16T02:51:24.319Z,7.08
2023-04-16T02:53:27.267Z,6.95
2023-04-16T02:55:30.404Z,7.02
2023-04-16T02:57:33.747Z,6.84
2023-04-16T02:59:36.527Z,6.92
2023-04-16T03:01:40.679Z,6.87
2023-04-16T03:03:43.523Z,6.91
2023-04-16T03:05:46.480Z,6.93
2023-04-16T03:07:50.664Z,6.95
2023-04-16T03:09:53.554Z,6.76
2023-04-16T03:11:57.384Z,6.77
2023-04-16T03:14:00.129Z,6.62
2023-04-16T03:16:03.027Z,6.65
2023-04-16T03:18:07.276Z,6.78
2023-04-16T03:20:11.189Z,6.89
2023-04-16T03:22:13.936Z,6.82
2023-04-16T03:24:17.158Z,6.85
2023-04-16T03:26:19.917Z,6.85
2023-04-16T03:28:23.234Z,6.73
2023-04-16T03:30:25.980Z,6.77
2023-04-16T03:32:28.962Z,6.92
2023-04-16T03:34:33.368Z,6.98
2023-04-16T03:36:36.495Z,6.86
2023-04-16T03:38:39.350Z,6.74
2023-04-16T03:40:42.424Z,6.88
2023-04-16T03:42:45.380Z,6.91
2023-04-16T03:44:48.191Z,6.90
2023-04-16T03:46:52.645Z,6.67
2023-04-16T03:48:55.981Z,6.61
2023-04-16T03:51:00.618Z,6.85
2023-04-16T03:53:03.399Z,6.66
2023-04-16T03:55:07.526Z,6.80
2023-04-16T03:57:10.628Z,6.90
2023-04-16T03:59:13.649Z,6.77
2023-04-16T04:01:16.376Z,6.88
2023-04-16T04:03:19.393Z,6.83
2023-04-16T04:05:24.879Z,6.89
2023-04-16T04:07:29.856Z,6.92
2023-04-16T04:09:34.025Z,6.84
2023-04-16T04:11:39.107Z,6.98
2023-04-16T04:13:41.940Z,6.73
2023-04-16T04:15:45.372Z,6.71
2023-04-16T04:17:48.171Z,6.01
2023-04-16T04:20:00.859Z,6.60
2023-04-16T04:22:06.357Z,6.92
2023-04-16T04:24:10.770Z,6.78
2023-04-16T04:26:13.574Z,6.73
2023-04-16T04:28:17.124Z,6.58
2023-04-16T04:30:20.464Z,6.68
2023-04-16T04:32:23.256Z,6.60
2023-04-16T04:34:26.213Z,6.66
2023-04-16T04:36:31.346Z,6.49
2023-04-16T04:38:34.627Z,6.76
2023-04-16T04:40:39.115Z,6.82
2023-04-16T04:42:41.992Z,6.76
2023-04-16T04:44:45.608Z,6.02
2023-04-16T04:46:48.595Z,6.71
2023-04-16T04:48:51.381Z,6.79
2023-04-16T04:50:54.557Z,6.49
2023-04-16T04:52:57.368Z,6.69
2023-04-16T04:55:00.644Z,6.64
2023-04-16T04:57:04.885Z,6.78
2023-04-16T04:59:07.814Z,6.73
2023-04-16T05:01:11.228Z,6.98
2023-04-16T05:03:14.050Z,6.83
2023-04-16T05:05:16.888Z,6.29
2023-04-16T05:07:19.626Z,6.78
2023-04-16T05:09:22.355Z,6.84
2023-04-16T05:11:25.118Z,6.86
2023-04-16T05:13:29.194Z,6.83
2023-04-16T05:15:31.935Z,6.86
2023-04-16T05:17:34.678Z,6.92
2023-04-16T05:19:37.432Z,6.83
2023-04-16T05:21:40.264Z,6.67
2023-04-16T05:23:42.986Z,6.33
2023-04-16T05:25:45.815Z,6.69
2023-04-16T05:27:48.529Z,6.68
2023-04-16T05:29:52.568Z,6.57
2023-04-16T05:31:55.272Z,6.58
2023-04-16T05:33:57.994Z,6.52
2023-04-16T05:36:00.726Z,6.43
2023-04-16T05:38:04.368Z,6.41
2023-04-16T05:40:08.694Z,6.42
2023-04-16T05:42:11.423Z,6.36
2023-04-16T05:44:15.243Z,6.03
2023-04-16T05:46:19.411Z,6.45
2023-04-16T05:48:22.254Z,6.05
2023-04-16T05:50:24.972Z,6.37
2023-04-16T05:52:27.666Z,6.47
2023-04-16T05:54:30.415Z,6.48
2023-04-16T05:56:33.172Z,6.43
2023-04-16T05:58:36.043Z,6.12
2023-04-16T06:00:38.823Z,6.47
2023-04-16T06:02:43.075Z,6.57
2023-04-16T06:04:46.293Z,6.59
2023-04-16T06:06:49.052Z,6.48
2023-04-16T06:08:51.788Z,6.33
2023-04-16T06:10:54.692Z,5.81
2023-04-16T06:12:57.418Z,5.96
2023-04-16T06:15:01.019Z,6.41
2023-04-16T06:17:03.753Z,6.43
2023-04-16T06:19:07.968Z,6.41
2023-04-16T06:21:10.829Z,6.50
2023-04-16T06:23:13.521Z,6.38
2023-04-16T06:25:18.105Z,6.08
2023-04-16T06:27:20.999Z,6.00
2023-04-16T06:29:30.675Z,6.22
2023-04-16T06:31:40.125Z,6.17
2023-04-16T06:33:42.844Z,6.25
2023-04-16T06:35:46.926Z,6.13
2023-04-16T06:37:49.706Z,5.51
2023-04-16T06:39:52.430Z,6.24
2023-04-16T06:41:55.953Z,6.20
2023-04-16T06:43:58.755Z,6.37
2023-04-16T06:46:01.603Z,6.34
2023-04-16T06:48:05.094Z,6.31
2023-04-16T06:50:08.761Z,6.23
2023-04-16T06:52:13.131Z,6.20
2023-04-16T06:54:16.724Z,6.27
2023-04-16T06:56:19.479Z,6.41
2023-04-16T06:58:22.975Z,6.28
2023-04-16T07:00:25.941Z,6.35
2023-04-16T07:02:28.845Z,6.19
2023-04-16T07:04:31.675Z,5.48
2023-04-16T07:06:34.569Z,6.12
2023-04-16T07:08:38.612Z,6.01
2023-04-16T07:10:41.378Z,6.21
2023-04-16T07:12:44.173Z,6.27
2023-04-16T07:14:47.628Z,6.26
2023-04-16T07:16:50.443Z,6.35
2023-04-16T07:18:53.261Z,6.31
2023-04-16T07:20:56.034Z,6.28
2023-04-16T07:22:59.398Z,6.26
2023-04-16T07:25:03.777Z,6.40
2023-04-16T07:27:06.493Z,6.53
2023-04-16T07:29:09.491Z,6.25
2023-04-16T07:31:12.771Z,6.34
2023-04-16T07:33:15.538Z,5.85
2023-04-16T07:35:18.521Z,6.34
2023-04-16T07:37:21.272Z,6.42
2023-04-16T07:39:24.011Z,6.42
2023-04-16T07:41:29.440Z,6.32
2023-04-16T07:43:32.138Z,6.39
2023-04-16T07:45:34.930Z,6.48
2023-04-16T07:47:37.680Z,6.56
2023-04-16T07:49:40.729Z,6.47
2023-04-16T07:51:43.554Z,5.60
2023-04-16T07:53:46.458Z,6.64
2023-04-16T07:55:49.240Z,6.43
2023-04-16T07:57:53.827Z,6.72
2023-04-16T07:59:56.557Z,6.65
2023-04-16T08:01:59.513Z,6.64
2023-04-16T08:04:02.469Z,6.49
2023-04-16T08:06:05.390Z,6.62
2023-04-16T08:08:08.405Z,6.57
2023-04-16T08:10:11.397Z,6.66
2023-04-16T08:12:14.150Z,6.65
2023-04-16T08:14:18.293Z,6.53
2023-04-16T08:16:21.201Z,6.72
2023-04-16T08:18:24.058Z,6.76
2023-04-16T08:20:27.133Z,6.77
2023-04-16T08:22:29.927Z,6.93
2023-04-16T08:24:32.703Z,6.84
2023-04-16T08:26:35.435Z,6.66
2023-04-16T08:28:38.251Z,6.56
2023-04-16T08:30:42.464Z,6.85
2023-04-16T08:32:46.406Z,6.58
2023-04-16T08:34:50.811Z,6.66
2023-04-16T08:36:53.590Z,6.71
2023-04-16T08:38:56.303Z,6.87
2023-04-16T08:41:03.797Z,6.84
2023-04-16T08:43:11.722Z,6.82
2023-04-16T08:45:17.772Z,6.67
2023-04-16T08:47:24.165Z,6.69
2023-04-16T08:49:27.862Z,6.66
2023-04-16T08:51:35.039Z,6.49
2023-04-16T08:53:49.520Z,6.61
2023-04-16T08:55:53.788Z,6.44
2023-04-16T08:58:01.336Z,6.60
2023-04-16T09:00:05.020Z,6.30
2023-04-16T09:02:08.338Z,7.04
2023-04-16T09:04:14.992Z,6.63
2023-04-16T09:06:18.377Z,7.09
2023-04-16T09:08:21.411Z,7.15
2023-04-16T09:10:25.594Z,7.10
2023-04-16T09:12:28.972Z,7.23
2023-04-16T09:14:32.009Z,7.22
2023-04-16T09:16:35.660Z,7.51
2023-04-16T09:18:38.647Z,6.73
2023-04-16T09:20:42.718Z,7.46
2023-04-16T09:22:46.449Z,7.50
2023-04-16T09:24:49.226Z,7.57
2023-04-16T09:26:53.565Z,7.48
2023-04-16T09:28:56.367Z,7.85
2023-04-16T09:31:09.886Z,7.73
2023-04-16T09:33:22.351Z,7.68
2023-04-16T09:35:25.526Z,7.86
2023-04-16T09:37:30.924Z,8.04
2023-04-16T09:39:33.749Z,8.00
2023-04-16T09:41:39.432Z,8.21
2023-04-16T09:43:42.176Z,8.30
2023-04-16T09:45:51.843Z,8.22
2023-04-16T09:48:04.516Z,8.00
2023-04-16T09:50:08.312Z,7.43
2023-04-16T09:52:15.378Z,7.79
2023-04-16T09:54:21.021Z,7.79
2023-04-16T09:56:26.736Z,8.03
2023-04-16T09:58:30.023Z,7.90
2023-04-16T10:00:32.663Z,7.98
2023-04-16T10:02:38.900Z,8.48
2023-04-16T10:04:47.832Z,8.40
2023-04-16T10:07:04.949Z,8.18
2023-04-16T10:09:09.139Z,7.73
2023-04-16T10:11:13.738Z,7.90
2023-04-16T10:13:17.677Z,8.01
2023-04-16T10:15:20.479Z,8.22
2023-04-16T10:17:24.042Z,8.16
2023-04-16T10:19:27.017Z,8.20
2023-04-16T10:21:33.810Z,7.60
2023-04-16T10:23:37.214Z,8.11
2023-04-16T10:25:39.953Z,8.65
2023-04-16T10:27:44.858Z,8.50
2023-04-16T10:29:47.935Z,8.37
2023-04-16T10:31:52.211Z,8.26
2023-04-16T10:33:55.441Z,7.97
2023-04-16T10:36:12.149Z,7.96
2023-04-16T10:38:26.383Z,8.06
2023-04-16T10:40:29.480Z,8.47
2023-04-16T10:42:32.577Z,8.51
2023-04-16T10:44:36.964Z,8.60
2023-04-16T10:46:41.261Z,7.90
2023-04-16T10:48:49.595Z,8.32
2023-04-16T10:50:57.930Z,7.13
2023-04-16T10:53:25.235Z,8.11
2023-04-16T10:55:28.068Z,8.16
2023-04-16T10:57:31.316Z,8.12
2023-04-16T10:59:37.439Z,8.34
2023-04-16T11:01:43.346Z,8.11
2023-04-16T11:03:48.446Z,8.15
2023-04-16T11:05:51.265Z,8.07
2023-04-16T11:07:54.049Z,8.17
2023-04-16T11:09:59.447Z,7.91
2023-04-16T11:12:04.883Z,7.98
2023-04-16T11:14:10.351Z,8.37
2023-04-16T11:16:15.640Z,8.34
2023-04-16T11:18:20.593Z,7.72
2023-04-16T11:20:24.738Z,8.23
2023-04-16T11:22:28.213Z,8.16
2023-04-16T11:24:31.471Z,8.00
2023-04-16T11:26:34.247Z,7.71
2023-04-16T11:28:36.951Z,7.81
2023-04-16T11:30:41.552Z,8.12
2023-04-16T11:32:46.592Z,8.11
2023-04-16T11:34:49.326Z,7.77
2023-04-16T11:36:53.167Z,8.23
2023-04-16T11:39:03.516Z,7.81
2023-04-16T11:41:06.251Z,7.88
2023-04-16T11:43:15.719Z,7.67
2023-04-16T11:45:19.357Z,7.89
2023-04-16T11:47:23.429Z,8.10
2023-04-16T11:49:31.059Z,7.89
2023-04-16T11:51:33.875Z,8.11
2023-04-16T11:53:37.777Z,8.16
2023-04-16T11:55:45.851Z,7.86
2023-04-16T11:57:48.770Z,7.62
2023-04-16T12:00:03.058Z,7.92
2023-04-16T12:02:37.226Z,7.56
2023-04-16T12:04:42.399Z,7.66
2023-04-16T12:07:06.667Z,7.95
2023-04-16T12:09:25.256Z,8.02
2023-04-16T12:11:41.104Z,7.82
2023-04-16T12:13:43.873Z,7.95
2023-04-16T12:15:48.175Z,8.00
2023-04-16T12:17:54.424Z,8.01
2023-04-16T12:19:59.571Z,8.01
2023-04-16T12:22:02.331Z,8.06
2023-04-16T12:24:05.623Z,8.22
2023-04-16T12:26:10.637Z,7.85
2023-04-16T12:28:13.813Z,8.00
2023-04-16T12:30:17.551Z,8.12
2023-04-16T12:32:24.100Z,8.18
2023-04-16T12:34:36.540Z,8.34
2023-04-16T12:37:05.830Z,8.19
2023-04-16T12:39:10.819Z,7.48
2023-04-16T12:41:13.746Z,8.43
2023-04-16T12:43:16.853Z,8.63
2023-04-16T12:45:19.868Z,8.90
2023-04-16T12:47:22.664Z,8.53
2023-04-16T12:49:25.794Z,8.50
2023-04-16T12:51:28.722Z,8.01
2023-04-16T12:53:32.861Z,8.46
2023-04-16T12:55:35.620Z,8.74
2023-04-16T12:57:38.400Z,8.73
2023-04-16T12:59:41.165Z,8.00
2023-04-16T13:01:43.966Z,8.39
2023-04-16T13:03:47.196Z,8.36
2023-04-16T13:05:50.170Z,8.41
2023-04-16T13:07:52.990Z,8.56
2023-04-16T13:09:57.199Z,8.42
2023-04-16T13:11:59.957Z,8.56
2023-04-16T13:14:03.011Z,8.77
2023-04-16T13:16:08.364Z,7.98
2023-04-16T13:18:11.188Z,8.47
2023-04-16T13:20:14.134Z,8.38
2023-04-16T13:22:17.022Z,8.35
2023-04-16T13:24:20.225Z,8.45
2023-04-16T13:26:24.299Z,8.56
2023-04-16T13:28:26.998Z,8.41
2023-04-16T13:30:30.054Z,8.47
2023-04-16T13:32:32.846Z,8.43
2023-04-16T13:34:35.780Z,8.79
2023-04-16T13:36:38.878Z,8.74
2023-04-16T13:38:42.222Z,8.54
2023-04-16T13:40:45.297Z,8.76
2023-04-16T13:42:49.352Z,8.80
2023-04-16T13:44:54.157Z,8.90
2023-04-16T13:46:57.107Z,9.02
2023-04-16T13:48:59.962Z,8.78
2023-04-16T13:51:04.177Z,8.92
2023-04-16T13:53:07.046Z,7.93
2023-04-16T13:55:10.560Z,8.94
2023-04-16T13:57:13.798Z,9.38
2023-04-16T13:59:18.220Z,9.11
2023-04-16T14:01:21.137Z,9.28
2023-04-16T14:03:24.464Z,8.90
2023-04-16T14:05:27.427Z,9.30
2023-04-16T14:07:30.445Z,9.04
2023-04-16T14:09:33.275Z,8.93
2023-04-16T14:11:35.997Z,8.83
2023-04-16T14:13:38.996Z,8.72
2023-04-16T14:15:43.420Z,8.37
2023-04-16T14:17:46.784Z,9.38
2023-04-16T14:19:49.707Z,9.37
2023-04-16T14:21:52.484Z,9.25
2023-04-16T14:23:55.245Z,9.19
2023-04-16T14:25:58.056Z,9.42
2023-04-16T14:28:01.160Z,9.28
2023-04-16T14:30:04.081Z,9.25
2023-04-16T14:32:08.932Z,8.47
2023-04-16T14:34:11.839Z,9.34
2023-04-16T14:36:14.642Z,9.01
2023-04-16T14:38:17.465Z,8.78
2023-04-16T14:40:20.465Z,9.14
2023-04-16T14:42:23.449Z,8.97
2023-04-16T14:44:26.162Z,9.17
2023-04-16T14:46:28.944Z,8.89
2023-04-16T14:48:33.269Z,9.22
2023-04-16T14:50:37.886Z,9.05
2023-04-16T14:52:41.624Z,8.95
2023-04-16T14:54:44.496Z,7.75
2023-04-16T14:56:47.834Z,9.13
2023-04-16T14:58:50.689Z,8.92
2023-04-16T15:00:53.536Z,9.01
2023-04-16T15:02:56.651Z,7.75
2023-04-16T15:05:01.045Z,8.52
2023-04-16T15:07:03.786Z,8.76
2023-04-16T15:09:07.457Z,8.63
2023-04-16T15:11:10.237Z,8.90
2023-04-16T15:13:12.974Z,8.92
2023-04-16T15:15:15.835Z,8.74
2023-04-16T15:17:18.700Z,8.65
2023-04-16T15:19:21.678Z,8.44
2023-04-16T15:21:26.697Z,8.39
2023-04-16T15:23:29.440Z,8.38
2023-04-16T15:25:32.117Z,8.28
2023-04-16T15:27:34.848Z,8.22
2023-04-16T15:29:37.586Z,8.33
2023-04-16T15:31:40.325Z,7.87
2023-04-16T15:33:43.089Z,7.99
2023-04-16T15:35:45.858Z,7.99
2023-04-16T15:37:52.270Z,8.06
2023-04-16T15:39:55.005Z,8.35
2023-04-16T15:42:01.261Z,8.59
2023-04-16T15:44:05.865Z,8.37
2023-04-16T15:46:08.752Z,8.22
2023-04-16T15:48:11.594Z,8.25
2023-04-16T15:50:14.411Z,8.23
2023-04-16T15:52:17.259Z,8.13
2023-04-16T15:54:21.508Z,8.01
2023-04-16T15:56:24.308Z,8.15
2023-04-16T15:58:27.504Z,7.35
2023-04-16T16:00:30.507Z,8.17
2023-04-16T16:02:34.142Z,8.29
2023-04-16T16:04:37.234Z,8.31
2023-04-16T16:06:40.096Z,8.17
2023-04-16T16:08:43.538Z,7.80
2023-04-16T16:10:47.786Z,8.19
2023-04-16T16:12:50.522Z,8.23
2023-04-16T16:14:53.243Z,8.01
2023-04-16T16:16:55.981Z,8.06
2023-04-16T16:18:58.778Z,8.03
2023-04-16T16:21:01.609Z,8.05
2023-04-16T16:23:04.784Z,7.13
2023-04-16T16:25:08.459Z,8.02
2023-04-16T16:27:12.605Z,8.15
2023-04-16T16:29:15.452Z,8.05
2023-04-16T16:31:18.236Z,7.88
2023-04-16T16:33:21.003Z,7.92
2023-04-16T16:35:23.749Z,8.02
2023-04-16T16:37:26.617Z,8.15
2023-04-16T16:39:29.339Z,8.15
2023-04-16T16:41:32.302Z,7.68
2023-04-16T16:43:36.633Z,7.16
2023-04-16T16:45:39.759Z,7.84
2023-04-16T16:47:42.552Z,7.82
2023-04-16T16:49:45.320Z,7.84
2023-04-16T16:51:48.317Z,7.99
2023-04-16T16:53:51.083Z,7.90
2023-04-16T16:55:53.963Z,7.95
2023-04-16T16:57:56.683Z,7.96
2023-04-16T17:00:00.847Z,7.27
2023-04-16T17:02:03.824Z,7.78
2023-04-16T17:04:06.829Z,7.73
2023-04-16T17:06:09.881Z,7.69
2023-04-16T17:08:13.784Z,7.23
2023-04-16T17:10:20.403Z,7.66
2023-04-16T17:12:23.724Z,7.64
2023-04-16T17:14:26.502Z,7.73
2023-04-16T17:16:30.633Z,7.10
2023-04-16T17:18:33.685Z,6.82
2023-04-16T17:20:36.429Z,7.75
2023-04-16T17:22:40.011Z,7.65
2023-04-16T17:24:42.971Z,7.89
2023-04-16T17:26:46.152Z,7.69
2023-04-16T17:28:48.929Z,7.70
2023-04-16T17:30:53.289Z,7.69
2023-04-16T17:32:57.383Z,7.04
2023-04-16T17:35:01.701Z,7.29
2023-04-16T17:37:04.419Z,7.57
2023-04-16T17:39:07.097Z,7.77
2023-04-16T17:41:09.798Z,6.41
2023-04-16T17:43:12.567Z,7.70
2023-04-16T17:45:15.595Z,7.45
2023-04-16T17:47:18.365Z,7.54
2023-04-16T17:49:22.431Z,5.03
2023-04-16T17:51:25.870Z,7.78
2023-04-16T17:53:28.656Z,7.63
2023-04-16T17:55:31.543Z,7.61
2023-04-16T17:57:34.600Z,7.49
2023-04-16T17:59:37.348Z,7.26
2023-04-16T18:01:40.890Z,7.29
2023-04-16T18:03:44.385Z,7.47
2023-04-16T18:05:48.638Z,6.35
2023-04-16T18:07:51.578Z,7.42
2023-04-16T18:09:54.386Z,7.50
2023-04-16T18:11:57.534Z,7.19
2023-04-16T18:14:00.302Z,6.90
2023-04-16T18:16:03.200Z,6.70
2023-04-16T18:18:06.357Z,7.65
2023-04-16T18:20:11.635Z,6.62
2023-04-16T18:22:15.809Z,5.86
2023-04-16T18:24:18.570Z,6.26
2023-04-16T18:26:22.872Z,7.66
2023-04-16T18:28:25.964Z,7.58
2023-04-16T18:30:28.771Z,7.66
2023-04-16T18:32:31.688Z,7.65
2023-04-16T18:34:34.693Z,7.05
2023-04-16T18:36:37.499Z,7.83
2023-04-16T18:38:52.993Z,7.09
2023-04-16T18:41:03.017Z,7.78
2023-04-16T18:43:05.897Z,7.82
2023-04-16T18:45:12.988Z,7.74
2023-04-16T18:47:16.848Z,7.76
2023-04-16T18:49:19.614Z,6.29
2023-04-16T18:51:22.476Z,7.66
2023-04-16T18:53:25.471Z,7.48
2023-04-16T18:55:30.298Z,7.40
2023-04-16T18:57:33.092Z,7.22
2023-04-16T18:59:35.877Z,7.30
2023-04-16T19:01:38.616Z,6.91
2023-04-16T19:03:41.439Z,7.61
2023-04-16T19:05:44.571Z,7.66
2023-04-16T19:07:47.464Z,6.90
2023-04-16T19:09:50.244Z,7.56
2023-04-16T19:11:54.413Z,7.66
2023-04-16T19:13:57.503Z,6.90
2023-04-16T19:16:01.454Z,7.52
2023-04-16T19:18:04.476Z,7.51
2023-04-16T19:20:11.268Z,7.58
2023-04-16T19:22:14.133Z,7.45
2023-04-16T19:24:16.922Z,7.60
2023-04-16T19:26:19.832Z,7.10
2023-04-16T19:28:23.939Z,7.56
2023-04-16T19:30:26.746Z,7.63
2023-04-16T19:32:29.658Z,7.75
2023-04-16T19:34:32.457Z,7.19
2023-04-16T19:36:35.442Z,7.63
2023-04-16T19:38:38.304Z,5.66
2023-04-16T19:40:41.280Z,7.08
2023-04-16T19:42:45.258Z,7.01
2023-04-16T19:44:49.408Z,7.57
2023-04-16T19:46:52.181Z,7.46
2023-04-16T19:48:54.935Z,7.39
2023-04-16T19:50:57.737Z,6.65
2023-04-16T19:53:00.500Z,7.60
2023-04-16T19:55:03.387Z,6.30
2023-04-16T19:57:06.206Z,6.92
2023-04-16T19:59:09.181Z,7.54
2023-04-16T20:01:13.550Z,7.28
2023-04-16T20:03:16.384Z,7.50
2023-04-16T20:05:19.330Z,7.38
2023-04-16T20:07:22.495Z,7.42
2023-04-16T20:09:25.685Z,7.43
2023-04-16T20:11:28.456Z,7.42
2023-04-16T20:13:31.287Z,6.76
2023-04-16T20:15:34.039Z,6.83
2023-04-16T20:17:38.242Z,7.15
2023-04-16T20:19:41.060Z,7.33
2023-04-16T20:21:45.442Z,7.39
2023-04-16T20:23:48.265Z,7.43
2023-04-16T20:25:52.147Z,7.38
2023-04-16T20:27:54.977Z,7.54
2023-04-16T20:29:57.775Z,7.64
2023-04-16T20:32:00.575Z,7.58
2023-04-16T20:34:04.820Z,7.55
2023-04-16T20:36:08.374Z,7.52
2023-04-16T20:38:11.279Z,7.58
2023-04-16T20:40:15.022Z,7.41
2023-04-16T20:42:17.974Z,7.18
2023-04-16T20:44:26.137Z,7.35
2023-04-16T20:46:30.250Z,7.51
2023-04-16T20:48:33.229Z,7.58
2023-04-16T20:50:37.376Z,6.90
2023-04-16T20:52:40.253Z,7.45
2023-04-16T20:54:43.067Z,7.47
2023-04-16T20:56:45.851Z,7.40
2023-04-16T20:58:48.610Z,7.35
2023-04-16T21:00:51.947Z,7.44
2023-04-16T21:02:54.811Z,6.73
2023-04-16T21:04:57.700Z,7.27
2023-04-16T21:07:03.169Z,7.25
2023-04-16T21:09:06.504Z,7.51
2023-04-16T21:11:09.496Z,7.59
2023-04-16T21:13:12.303Z,7.57
2023-04-16T21:15:15.156Z,7.49
2023-04-16T21:17:17.890Z,7.27
2023-04-16T21:19:20.581Z,7.75
2023-04-16T21:21:23.450Z,7.28
2023-04-16T21:23:27.646Z,7.74
2023-04-16T21:25:31.025Z,7.27
2023-04-16T21:27:33.849Z,7.69
2023-04-16T21:29:36.567Z,7.72
2023-04-16T21:31:39.385Z,7.69
2023-04-16T21:33:42.140Z,7.63
2023-04-16T21:35:44.935Z,7.62
2023-04-16T21:37:47.779Z,7.53
2023-04-16T21:39:51.835Z,7.75
2023-04-16T21:41:54.560Z,7.60
2023-04-16T21:43:57.250Z,7.60
2023-04-16T21:46:00.518Z,7.70
2023-04-16T21:48:03.352Z,7.67
2023-04-16T21:50:06.765Z,5.20
2023-04-16T21:52:14.037Z,7.63
2023-04-16T21:54:18.630Z,7.14
2023-04-16T21:56:22.803Z,7.43
2023-04-16T21:58:26.451Z,7.29
2023-04-16T22:00:29.173Z,6.71
2023-04-16T22:02:31.915Z,7.10
2023-04-16T22:04:38.443Z,7.40
2023-04-16T22:06:41.281Z,7.35
2023-04-16T22:08:43.957Z,7.00
2023-04-16T22:10:46.652Z,5.67
2023-04-16T22:12:54.769Z,7.40
2023-04-16T22:15:02.433Z,7.30
2023-04-16T22:17:06.356Z,6.94
2023-04-16T22:19:09.582Z,7.45
2023-04-16T22:21:12.450Z,7.53
2023-04-16T22:23:15.165Z,7.16
2023-04-16T22:25:17.881Z,7.40
2023-04-16T22:27:20.571Z,6.78
2023-04-16T22:29:24.603Z,7.53
2023-04-16T22:31:27.368Z,7.59
2023-04-16T22:33:30.376Z,7.48
2023-04-16T22:35:33.085Z,7.43
2023-04-16T22:37:35.773Z,7.45
2023-04-16T22:39:38.497Z,7.23
2023-04-16T22:41:41.411Z,7.22
2023-04-16T22:43:44.122Z,7.35
2023-04-16T22:45:48.640Z,7.37
2023-04-16T22:47:51.415Z,7.37
2023-04-16T22:49:54.345Z,7.47
2023-04-16T22:51:57.044Z,7.54
2023-04-16T22:53:59.776Z,7.41
2023-04-16T22:56:02.515Z,7.29
2023-04-16T22:58:05.372Z,7.48
2023-04-16T23:00:15.522Z,7.20
2023-04-16T23:02:20.076Z,7.46
2023-04-16T23:04:22.874Z,7.61
2023-04-16T23:06:26.713Z,6.21
2023-04-16T23:08:29.412Z,7.36
2023-04-16T23:10:32.246Z,7.41
2023-04-16T23:12:37.119Z,7.55
2023-04-16T23:14:39.821Z,7.47
2023-04-16T23:16:42.513Z,7.39
2023-04-16T23:18:46.638Z,7.31
2023-04-16T23:20:51.829Z,7.52
2023-04-16T23:22:54.558Z,7.41
2023-04-16T23:24:57.407Z,7.28
2023-04-16T23:27:01.074Z,7.53
2023-04-16T23:29:03.873Z,5.08
2023-04-16T23:31:07.386Z,6.20
2023-04-16T23:33:10.474Z,7.25
2023-04-16T23:35:20.272Z,7.46
2023-04-16T23:37:23.067Z,7.41
2023-04-16T23:39:26.148Z,7.34
2023-04-16T23:41:28.898Z,7.33
2023-04-16T23:43:31.727Z,6.67
2023-04-16T23:45:34.492Z,7.47
2023-04-16T23:47:37.325Z,7.48
2023-04-16T23:49:40.129Z,7.48
2023-04-16T23:51:44.220Z,7.37
2023-04-16T23:53:46.894Z,7.54
2023-04-16T23:55:49.673Z,7.33
2023-04-16T23:57:52.400Z,7.40
2023-04-16T23:59:55.236Z,7.38
